createdAt,value
2019-02-10T00:01:51.492Z,99909.20
2019-02-10T00:04:19.319Z,99910.34
2019-02-10T00:06:47.211Z,99915.95
2019-02-10T00:09:15.018Z,99919.64
2019-02-10T00:11:42.957Z,99916.86
2019-02-10T00:14:11.390Z,99904.50
2019-02-10T00:16:39.142Z,99907.71
2019-02-10T00:19:07.089Z,99908.96
2019-02-10T00:21:35.061Z,99911.19
2019-02-10T00:24:02.954Z,99912.71
2019-02-10T00:26:30.882Z,99901.69
2019-02-10T00:28:58.840Z,99913.41
2019-02-10T00:31:26.796Z,99900.52
2019-02-10T00:33:54.587Z,99910.22
2019-02-10T00:36:22.469Z,99910.28
2019-02-10T00:38:50.411Z,99913.02
2019-02-10T00:41:18.288Z,99921.88
2019-02-10T00:43:46.434Z,99919.30
2019-02-10T00:46:14.205Z,99923.54
2019-02-10T00:48:42.092Z,99930.47
2019-02-10T00:51:10.165Z,99929.41
2019-02-10T00:53:37.989Z,99925.42
2019-02-10T00:56:05.952Z,99931.05
2019-02-10T00:58:33.809Z,99924.63
2019-02-10T01:01:01.724Z,99919.88
2019-02-10T01:03:29.526Z,99925.25
2019-02-10T01:05:57.414Z,99922.11
2019-02-10T01:08:25.538Z,99933.08
2019-02-10T01:10:53.434Z,99926.50
2019-02-10T01:13:21.357Z,99932.63
2019-02-10T01:15:49.109Z,99931.31
2019-02-10T01:18:18.591Z,99933.39
2019-02-10T01:20:46.601Z,99929.55
2019-02-10T01:23:14.652Z,99928.23
2019-02-10T01:25:42.481Z,99922.06
2019-02-10T01:28:10.371Z,99925.05
2019-02-10T01:30:39.111Z,99928.19
2019-02-10T01:33:07.052Z,99931.63
2019-02-10T01:35:35.190Z,99923.48
2019-02-10T01:38:04.395Z,99919.80
2019-02-10T01:40:33.022Z,99925.36
2019-02-10T01:43:00.867Z,99924.20
2019-02-10T01:45:28.724Z,99916.53
2019-02-10T01:47:56.581Z,99911.52
2019-02-10T01:50:24.785Z,99910.46
2019-02-10T01:52:52.704Z,99915.27
2019-02-10T01:55:20.472Z,99910.41
2019-02-10T01:57:48.618Z,99914.76
2019-02-10T02:00:16.573Z,99917.43
2019-02-10T02:02:44.762Z,99912.42
2019-02-10T02:05:13.031Z,99907.98
2019-02-10T02:07:41.012Z,99905.01
2019-02-10T02:10:10.797Z,99910.27
2019-02-10T02:12:39.051Z,99913.50
2019-02-10T02:15:09.870Z,99909.20
2019-02-10T02:17:37.810Z,99907.43
2019-02-10T02:20:06.122Z,99906.61
2019-02-10T02:22:34.103Z,99904.34
2019-02-10T02:25:01.970Z,99904.55
2019-02-10T02:27:29.906Z,99899.30
2019-02-10T02:29:57.661Z,99893.94
2019-02-10T02:32:25.586Z,99898.13
2019-02-10T02:34:53.477Z,99898.13
2019-02-10T02:37:21.320Z,99897.57
2019-02-10T02:39:49.106Z,99886.22
2019-02-10T02:42:16.974Z,99885.75
2019-02-10T02:44:44.824Z,99887.27
2019-02-10T02:47:12.951Z,99884.64
2019-02-10T02:49:41.539Z,99884.04
2019-02-10T02:52:09.994Z,99876.25
2019-02-10T02:54:37.918Z,99873.73
2019-02-10T02:57:05.679Z,99880.91
2019-02-10T02:59:33.461Z,99872.41
2019-02-10T03:04:45.866Z,99876.52
2019-02-10T03:07:18.164Z,99867.91
2019-02-10T03:09:43.442Z,99857.56
2019-02-10T03:12:11.307Z,99858.02
2019-02-10T03:14:39.992Z,99864.03
2019-02-10T03:17:07.978Z,99853.99
2019-02-10T03:19:36.039Z,99855.24
2019-02-10T03:22:04.067Z,99852.49
2019-02-10T03:24:31.926Z,99852.12
2019-02-10T03:26:59.833Z,99852.73
2019-02-10T03:29:27.743Z,99850.11
2019-02-10T03:31:56.151Z,99840.17
2019-02-10T03:34:23.938Z,99847.72
2019-02-10T03:36:51.805Z,99846.51
2019-02-10T03:39:19.703Z,99843.88
2019-02-10T03:41:47.781Z,99836.36
2019-02-10T03:44:15.598Z,99844.55
2019-02-10T03:46:44.413Z,99849.48
2019-02-10T03:49:12.251Z,99836.92
2019-02-10T03:51:40.064Z,99832.88
2019-02-10T03:54:07.925Z,99827.81
2019-02-10T03:56:35.938Z,99836.71
2019-02-10T03:59:03.979Z,99828.13
2019-02-10T04:01:32.007Z,99822.27
2019-02-10T04:04:00.042Z,99826.46
2019-02-10T04:06:27.938Z,99813.17
2019-02-10T04:08:55.878Z,99817.02
2019-02-10T04:11:23.685Z,99816.16
2019-02-10T04:13:51.520Z,99819.05
2019-02-10T04:16:19.400Z,99813.58
2019-02-10T04:18:47.264Z,99813.07
2019-02-10T04:21:15.174Z,99804.45
2019-02-10T04:23:43.143Z,99812.83
2019-02-10T04:26:11.099Z,99809.58
2019-02-10T04:28:39.847Z,99809.03
2019-02-10T04:31:07.714Z,99807.84
2019-02-10T04:33:35.695Z,99803.89
2019-02-10T04:36:03.590Z,99800.80
2019-02-10T04:38:31.392Z,99801.77
2019-02-10T04:40:59.238Z,99799.11
2019-02-10T04:43:27.024Z,99796.78
2019-02-10T04:45:54.848Z,99802.74
2019-02-10T04:48:24.588Z,99799.41
2019-02-10T04:50:52.479Z,99795.58
2019-02-10T04:53:20.767Z,99795.63
2019-02-10T04:56:11.498Z,99796.09
2019-02-10T04:58:39.386Z,99786.90
2019-02-10T05:01:07.446Z,99778.20
2019-02-10T05:03:35.482Z,99781.55
2019-02-10T05:06:03.517Z,99771.80
2019-02-10T05:08:31.337Z,99770.95
2019-02-10T05:10:59.324Z,99772.01
2019-02-10T05:13:27.192Z,99765.94
2019-02-10T05:15:55.045Z,99764.02
2019-02-10T05:18:23.422Z,99761.65
2019-02-10T05:20:51.331Z,99760.79
2019-02-10T05:23:19.906Z,99757.22
2019-02-10T05:25:47.899Z,99762.47
2019-02-10T05:28:15.749Z,99757.47
2019-02-10T05:30:43.646Z,99761.16
2019-02-10T05:33:11.531Z,99757.72
2019-02-10T05:35:39.401Z,99760.09
2019-02-10T05:38:07.202Z,99753.83
2019-02-10T05:40:35.188Z,99753.47
2019-02-10T05:43:03.022Z,99757.52
2019-02-10T05:45:30.790Z,99747.52
2019-02-10T05:47:58.634Z,99746.31
2019-02-10T05:50:26.513Z,99742.13
2019-02-10T05:52:54.974Z,99739.05
2019-02-10T05:55:22.915Z,99736.56
2019-02-10T05:57:50.753Z,99737.62
2019-02-10T06:00:19.335Z,99744.23
2019-02-10T06:02:47.128Z,99748.66
2019-02-10T06:05:17.821Z,99746.64
2019-02-10T06:07:45.742Z,99745.48
2019-02-10T06:10:13.605Z,99736.05
2019-02-10T06:12:41.513Z,99736.05
2019-02-10T06:15:09.628Z,99736.05
2019-02-10T06:17:37.661Z,99739.03
2019-02-10T06:20:06.005Z,99740.84
2019-02-10T06:22:33.887Z,99738.78
2019-02-10T06:25:01.788Z,99729.59
2019-02-10T06:27:29.881Z,99732.22
2019-02-10T06:29:58.088Z,99733.89
2019-02-10T06:32:26.173Z,99727.33
2019-02-10T06:34:54.043Z,99737.00
2019-02-10T06:37:21.936Z,99730.70
2019-02-10T06:39:50.436Z,99729.95
2019-02-10T06:42:18.371Z,99730.91
2019-02-10T06:44:48.421Z,99726.02
2019-02-10T06:47:16.521Z,99730.20
2019-02-10T06:49:44.506Z,99725.45
2019-02-10T06:52:13.368Z,99710.88
2019-02-10T06:54:52.367Z,99714.91
2019-02-10T06:57:22.194Z,99705.94
2019-02-10T06:59:55.565Z,99704.52
2019-02-10T07:02:39.529Z,99706.03
2019-02-10T07:05:09.104Z,99697.40
2019-02-10T07:07:36.987Z,99686.84
2019-02-10T07:10:05.715Z,99684.42
2019-02-10T07:12:47.134Z,99673.16
2019-02-10T07:15:51.194Z,99677.98
2019-02-10T07:18:55.126Z,99681.26
2019-02-10T07:21:24.585Z,99682.89
2019-02-10T07:23:56.465Z,99681.55
2019-02-10T07:26:56.569Z,99676.95
2019-02-10T07:30:09.994Z,99676.56
2019-02-10T07:32:42.064Z,99683.77
2019-02-10T07:36:06.361Z,99677.87
2019-02-10T07:39:04.884Z,99673.05
2019-02-10T07:42:23.633Z,99663.51
2019-02-10T07:45:32.906Z,99660.34
2019-02-10T07:48:18.546Z,99655.44
2019-02-10T07:51:20.066Z,99649.36
2019-02-10T07:54:10.800Z,99646.81
2019-02-10T07:56:54.388Z,99636.02
2019-02-10T07:59:58.911Z,99637.06
2019-02-10T08:03:05.788Z,99630.64
2019-02-10T08:06:23.188Z,99628.44
2019-02-10T08:09:19.599Z,99619.77
2019-02-10T08:12:38.357Z,99621.09
2019-02-10T08:15:33.386Z,99621.23
2019-02-10T08:18:35.001Z,99619.85
2019-02-10T08:21:47.173Z,99614.59
2019-02-10T08:24:28.254Z,99617.50
2019-02-10T08:27:22.982Z,99615.41
2019-02-10T08:30:22.160Z,99613.13
2019-02-10T08:33:11.741Z,99607.95
2019-02-10T08:36:26.631Z,99608.18
2019-02-10T08:39:27.913Z,99603.80
2019-02-10T08:42:13.136Z,99595.63
2019-02-10T08:45:11.604Z,99582.64
2019-02-10T08:48:17.392Z,99591.91
2019-02-10T08:51:24.907Z,99596.26
2019-02-10T08:53:52.903Z,99590.72
2019-02-10T08:56:20.981Z,99578.69
2019-02-10T08:58:48.897Z,99574.80
2019-02-10T09:01:16.829Z,99574.05
2019-02-10T09:03:44.611Z,99570.85
2019-02-10T09:06:12.449Z,99562.96
2019-02-10T09:08:40.749Z,99556.95
2019-02-10T09:11:08.859Z,99548.34
2019-02-10T09:13:36.667Z,99540.84
2019-02-10T09:16:04.652Z,99532.20
2019-02-10T09:18:33.062Z,99530.29
2019-02-10T09:21:00.962Z,99529.88
2019-02-10T09:23:28.835Z,99519.43
2019-02-10T09:25:56.759Z,99506.50
2019-02-10T09:28:26.456Z,99508.05
2019-02-10T09:30:54.460Z,99495.96
2019-02-10T09:33:22.961Z,99496.19
2019-02-10T09:35:50.895Z,99491.64
2019-02-10T09:38:20.037Z,99483.48
2019-02-10T09:40:48.042Z,99481.45
2019-02-10T09:43:15.912Z,99482.89
2019-02-10T09:45:43.866Z,99484.13
2019-02-10T09:48:11.877Z,99483.43
2019-02-10T09:50:39.755Z,99479.36
2019-02-10T09:53:07.741Z,99467.97
2019-02-10T09:55:35.672Z,99455.05
2019-02-10T09:58:03.696Z,99455.78
2019-02-10T10:00:31.759Z,99453.13
2019-02-10T10:02:59.696Z,99445.68
2019-02-10T10:05:27.652Z,99441.99
2019-02-10T10:07:55.713Z,99442.22
2019-02-10T10:10:23.636Z,99436.27
2019-02-10T10:12:51.603Z,99422.11
2019-02-10T10:15:19.583Z,99425.35
2019-02-10T10:17:48.678Z,99411.77
2019-02-10T10:20:16.722Z,99416.33
2019-02-10T10:22:47.228Z,99407.61
2019-02-10T10:25:15.151Z,99395.75
2019-02-10T10:27:43.057Z,99394.77
2019-02-10T10:30:13.529Z,99387.53
2019-02-10T10:32:41.389Z,99382.33
2019-02-10T10:35:09.564Z,99370.02
2019-02-10T10:37:37.813Z,99371.16
2019-02-10T10:40:07.419Z,99360.11
2019-02-10T10:42:35.385Z,99357.64
2019-02-10T10:45:03.513Z,99346.31
2019-02-10T10:47:31.445Z,99345.38
2019-02-10T10:49:59.377Z,99333.88
2019-02-10T10:52:27.178Z,99328.82
2019-02-10T10:54:55.205Z,99329.17
2019-02-10T10:57:25.123Z,99324.93
2019-02-10T10:59:52.901Z,99305.66
2019-02-10T11:02:21.040Z,99302.70
2019-02-10T11:04:48.950Z,99291.03
2019-02-10T11:07:16.792Z,99288.08
2019-02-10T11:09:45.066Z,99277.20
2019-02-10T11:12:12.961Z,99260.38
2019-02-10T11:14:40.882Z,99248.33
2019-02-10T11:17:10.536Z,99237.97
2019-02-10T11:19:38.611Z,99233.83
2019-02-10T11:22:06.506Z,99215.03
2019-02-10T11:24:34.418Z,99212.58
2019-02-10T11:27:04.389Z,99207.30
2019-02-10T11:29:32.316Z,99195.09
2019-02-10T11:32:00.236Z,99186.84
2019-02-10T11:34:28.050Z,99174.16
2019-02-10T11:36:56.556Z,99162.75
2019-02-10T11:39:24.508Z,99153.17
2019-02-10T11:41:52.425Z,99128.75
2019-02-10T11:44:20.251Z,99130.40
2019-02-10T11:46:48.164Z,99116.20
2019-02-10T11:49:16.053Z,99110.77
2019-02-10T11:51:43.850Z,99115.20
2019-02-10T11:54:12.858Z,99111.42
2019-02-10T11:56:41.192Z,99100.00
2019-02-10T11:59:09.074Z,99093.72
2019-02-10T12:01:36.947Z,99103.15
2019-02-10T12:04:04.843Z,99106.91
2019-02-10T12:06:32.811Z,99111.05
2019-02-10T12:09:00.719Z,99114.02
2019-02-10T12:11:29.316Z,99094.20
2019-02-10T12:13:57.099Z,99083.78
2019-02-10T12:16:25.093Z,99065.95
2019-02-10T12:18:53.146Z,99050.93
2019-02-10T12:21:21.364Z,99036.20
2019-02-10T12:23:49.177Z,99031.77
2019-02-10T12:26:17.043Z,99031.27
2019-02-10T12:28:44.953Z,99017.68
2019-02-10T12:31:12.944Z,99002.19
2019-02-10T12:33:41.034Z,99001.20
2019-02-10T12:36:09.102Z,99006.33
2019-02-10T12:38:36.897Z,99002.16
2019-02-10T12:41:04.978Z,98982.70
2019-02-10T12:43:32.814Z,98985.67
2019-02-10T12:46:00.917Z,98977.25
2019-02-10T12:48:28.860Z,98971.80
2019-02-10T12:50:56.925Z,98965.69
2019-02-10T12:53:24.793Z,98963.36
2019-02-10T12:55:52.989Z,98958.22
2019-02-10T12:58:20.960Z,98956.55
2019-02-10T13:00:49.077Z,98953.42
2019-02-10T13:03:17.148Z,98943.36
2019-02-10T13:05:45.067Z,98940.71
2019-02-10T13:08:13.144Z,98936.73
2019-02-10T13:10:43.847Z,98927.48
2019-02-10T13:13:19.153Z,98931.47
2019-02-10T13:15:42.073Z,98916.03
2019-02-10T13:18:09.895Z,98908.09
2019-02-10T13:20:37.860Z,98911.89
2019-02-10T13:23:05.946Z,98906.66
2019-02-10T13:25:33.849Z,98900.72
2019-02-10T13:28:01.718Z,98895.77
2019-02-10T13:30:30.431Z,98886.51
2019-02-10T13:32:58.506Z,98885.52
2019-02-10T13:35:26.455Z,98878.20
2019-02-10T13:37:54.279Z,98898.10
2019-02-10T13:40:22.180Z,98885.91
2019-02-10T13:42:50.286Z,98874.06
2019-02-10T13:45:18.234Z,98875.91
2019-02-10T13:47:46.326Z,98864.50
2019-02-10T13:50:15.098Z,98851.63
2019-02-10T13:52:43.083Z,98854.28
2019-02-10T13:55:11.605Z,98856.50
2019-02-10T13:57:39.624Z,98855.48
2019-02-10T14:00:11.019Z,98854.95
2019-02-10T14:02:39.462Z,98856.64
2019-02-10T14:05:07.488Z,98858.34
2019-02-10T14:07:35.361Z,98845.94
2019-02-10T14:10:03.589Z,98844.45
2019-02-10T14:12:31.477Z,98846.79
2019-02-10T14:14:59.378Z,98845.67
2019-02-10T14:17:27.911Z,98838.28
2019-02-10T14:19:55.823Z,98843.88
2019-02-10T14:22:23.677Z,98841.30
2019-02-10T14:24:51.570Z,98853.54
2019-02-10T14:27:19.487Z,98842.16
2019-02-10T14:29:47.658Z,98831.45
2019-02-10T14:32:16.037Z,98822.22
2019-02-10T14:34:44.736Z,98812.33
2019-02-10T14:37:12.718Z,98807.43
2019-02-10T14:39:40.533Z,98812.34
2019-02-10T14:42:08.489Z,98812.78
2019-02-10T14:44:36.417Z,98799.46
2019-02-10T14:47:04.703Z,98786.94
2019-02-10T14:49:32.505Z,98780.05
2019-02-10T14:52:00.402Z,98769.32
2019-02-10T14:54:28.218Z,98759.30
2019-02-10T14:56:56.109Z,98739.30
2019-02-10T14:59:25.709Z,98741.63
2019-02-10T15:01:53.629Z,98729.58
2019-02-10T15:04:22.098Z,98718.21
2019-02-10T15:06:50.118Z,98701.18
2019-02-10T15:09:18.696Z,98698.75
2019-02-10T15:11:46.600Z,98685.27
2019-02-10T15:14:14.585Z,98675.91
2019-02-10T15:16:42.385Z,98659.52
2019-02-10T15:19:10.254Z,98654.91
2019-02-10T15:21:38.070Z,98636.98
2019-02-10T15:24:06.038Z,98632.09
2019-02-10T15:26:33.833Z,98611.13
2019-02-10T15:29:01.679Z,98604.67
2019-02-10T15:31:29.586Z,98600.42
2019-02-10T15:33:57.770Z,98600.26
2019-02-10T15:36:25.637Z,98592.53
2019-02-10T15:38:54.271Z,98577.52
2019-02-10T15:41:22.220Z,98580.36
2019-02-10T15:43:50.198Z,98568.60
2019-02-10T15:46:19.088Z,98568.01
2019-02-10T15:48:47.069Z,98570.19
2019-02-10T15:51:15.279Z,98573.83
2019-02-10T15:53:43.143Z,98554.23
2019-02-10T15:56:11.573Z,98554.17
2019-02-10T15:58:39.516Z,98546.11
2019-02-10T16:01:07.874Z,98533.27
2019-02-10T16:03:35.835Z,98540.40
2019-02-10T16:06:03.834Z,98557.06
2019-02-10T16:08:31.745Z,98538.59
2019-02-10T16:10:59.689Z,98543.20
2019-02-10T16:13:27.553Z,98531.81
2019-02-10T16:15:55.467Z,98536.28
2019-02-10T16:18:23.358Z,98535.47
2019-02-10T16:20:51.157Z,98534.48
2019-02-10T16:23:19.141Z,98533.97
2019-02-10T16:25:46.945Z,98524.88
2019-02-10T16:28:15.632Z,98534.40
2019-02-10T16:30:43.525Z,98531.79
2019-02-10T16:33:11.500Z,98533.02
2019-02-10T16:35:39.843Z,98538.16
2019-02-10T16:38:07.726Z,98547.18
2019-02-10T16:40:35.566Z,98565.95
2019-02-10T16:43:03.563Z,98568.00
2019-02-10T16:45:31.691Z,98575.08
2019-02-10T16:47:59.595Z,98553.52
2019-02-10T16:50:27.549Z,98556.47
2019-02-10T16:52:55.339Z,98533.25
2019-02-10T16:55:23.211Z,98539.05
2019-02-10T16:57:51.049Z,98550.91
2019-02-10T17:00:19.137Z,98560.27
2019-02-10T17:02:46.976Z,98550.62
2019-02-10T17:05:14.887Z,98557.69
2019-02-10T17:07:53.225Z,98572.17
2019-02-10T17:10:21.482Z,98578.77
2019-02-10T17:12:49.514Z,98586.67
2019-02-10T17:15:17.496Z,98591.44
2019-02-10T17:17:45.312Z,98580.11
2019-02-10T17:20:13.281Z,98588.66
2019-02-10T17:22:41.204Z,98579.78
2019-02-10T17:25:11.481Z,98591.12
2019-02-10T17:27:39.984Z,98593.28
2019-02-10T17:30:08.397Z,98586.04
2019-02-10T17:32:39.224Z,98595.40
2019-02-10T17:35:08.056Z,98607.77
2019-02-10T17:37:36.158Z,98603.30
2019-02-10T17:40:06.463Z,98611.20
2019-02-10T17:42:34.787Z,98599.20
2019-02-10T17:45:03.042Z,98578.94
2019-02-10T17:47:31.045Z,98573.34
2019-02-10T17:49:59.006Z,98558.22
2019-02-10T17:52:31.807Z,98556.42
2019-02-10T17:54:56.785Z,98538.14
2019-02-10T17:57:24.711Z,98537.67
2019-02-10T17:59:52.607Z,98544.27
2019-02-10T18:02:20.541Z,98510.70
2019-02-10T18:04:50.088Z,98539.48
2019-02-10T18:07:17.880Z,98533.58
2019-02-10T18:09:57.966Z,98538.34
2019-02-10T18:12:25.854Z,98527.83
2019-02-10T18:15:11.850Z,98524.20
2019-02-10T18:18:05.910Z,98524.86
2019-02-10T18:20:53.020Z,98546.58
2019-02-10T18:23:40.410Z,98553.14
2019-02-10T18:26:34.015Z,98570.22
2019-02-10T18:29:21.594Z,98537.34
2019-02-10T18:32:03.472Z,98543.09
2019-02-10T18:34:37.630Z,98524.53
2019-02-10T18:37:14.780Z,98534.56
2019-02-10T18:40:05.263Z,98525.86
2019-02-10T18:42:49.579Z,98529.80
2019-02-10T18:45:36.891Z,98537.06
2019-02-10T18:48:39.406Z,98540.98
2019-02-10T18:51:31.335Z,98530.14
2019-02-10T18:54:24.696Z,98515.67
2019-02-10T18:57:12.637Z,98523.90
2019-02-10T18:59:58.804Z,98523.41
2019-02-10T19:03:04.496Z,98513.54
2019-02-10T19:05:50.225Z,98507.28
2019-02-10T19:08:32.183Z,98490.02
2019-02-10T19:11:05.820Z,98475.41
2019-02-10T19:14:09.500Z,98463.41
2019-02-10T19:16:59.207Z,98463.42
2019-02-10T19:19:49.567Z,98456.19
2019-02-10T19:22:31.791Z,98450.29
2019-02-10T19:25:22.018Z,98443.37
2019-02-10T19:28:15.344Z,98436.46
2019-02-10T19:30:56.080Z,98426.76
2019-02-10T19:33:43.509Z,98416.60
2019-02-10T19:36:37.223Z,98405.61
2019-02-10T19:39:27.347Z,98401.02
2019-02-10T19:42:18.094Z,98397.25
2019-02-10T19:45:09.294Z,98404.13
2019-02-10T19:47:53.801Z,98408.89
2019-02-10T19:50:41.228Z,98418.11
2019-02-10T19:53:31.639Z,98418.78
2019-02-10T19:56:18.300Z,98407.94
2019-02-10T19:59:04.345Z,98420.06
2019-02-10T20:01:57.714Z,98419.59
2019-02-10T20:04:43.982Z,98427.62
2019-02-10T20:07:29.065Z,98426.17
2019-02-10T20:10:22.549Z,98424.34
2019-02-10T20:13:16.712Z,98424.02
2019-02-10T20:16:03.974Z,98412.84
2019-02-10T20:19:03.275Z,98407.59
2019-02-10T20:21:38.781Z,98409.73
2019-02-10T20:24:25.561Z,98401.84
2019-02-10T20:27:15.707Z,98384.92
2019-02-10T20:30:21.223Z,98371.43
2019-02-10T20:33:12.269Z,98375.39
2019-02-10T20:35:46.497Z,98373.41
2019-02-10T20:38:36.771Z,98373.40
2019-02-10T20:41:27.293Z,98375.20
2019-02-10T20:44:01.725Z,98373.55
2019-02-10T20:47:04.674Z,98379.48
2019-02-10T20:49:48.137Z,98371.09
2019-02-10T20:52:30.358Z,98375.84
2019-02-10T20:55:09.962Z,98383.27
2019-02-10T20:58:06.676Z,98369.56
2019-02-10T21:00:52.762Z,98369.41
2019-02-10T21:03:32.767Z,98355.27
2019-02-10T21:06:21.841Z,98350.00
2019-02-10T21:09:17.937Z,98348.81
2019-02-10T21:12:08.358Z,98351.44
2019-02-10T21:14:58.955Z,98339.93
2019-02-10T21:17:49.266Z,98335.35
2019-02-10T21:20:38.703Z,98333.97
2019-02-10T21:23:35.021Z,98329.55
2019-02-10T21:26:22.374Z,98326.08
2019-02-10T21:29:09.764Z,98321.30
2019-02-10T21:32:06.129Z,98321.26
2019-02-10T21:34:48.740Z,98321.30
2019-02-10T21:37:39.293Z,98306.98
2019-02-10T21:40:16.466Z,98309.14
2019-02-10T21:42:57.831Z,98303.04
2019-02-10T21:45:47.907Z,98290.80
2019-02-10T21:48:22.791Z,98280.13
2019-02-10T21:50:51.109Z,98283.72
2019-02-10T21:53:19.039Z,98287.02
2019-02-10T21:55:46.992Z,98311.36
2019-02-10T21:58:14.905Z,98298.80
2019-02-10T22:00:42.863Z,98304.89
2019-02-10T22:03:10.745Z,98300.52
2019-02-10T22:05:38.772Z,98297.08
2019-02-10T22:08:06.545Z,98305.97
2019-02-10T22:10:34.633Z,98308.41
2019-02-10T22:13:02.543Z,98305.48
2019-02-10T22:15:30.505Z,98311.61
2019-02-10T22:17:58.447Z,98307.31
2019-02-10T22:20:26.248Z,98297.48
2019-02-10T22:22:54.224Z,98310.10
2019-02-10T22:25:22.231Z,98306.66
2019-02-10T22:27:50.099Z,98300.41
2019-02-10T22:30:18.858Z,98313.87
2019-02-10T22:32:46.926Z,98309.05
2019-02-10T22:35:14.780Z,98307.23
2019-02-10T22:37:42.851Z,98303.95
2019-02-10T22:40:10.924Z,98303.14
2019-02-10T22:42:45.379Z,98316.42
2019-02-10T22:45:10.088Z,98310.38
2019-02-10T22:47:38.038Z,98317.41
2019-02-10T22:50:09.526Z,98318.52
2019-02-10T22:52:37.718Z,98318.86
2019-02-10T22:55:05.793Z,98311.64
2019-02-10T22:57:33.653Z,98308.46
2019-02-10T23:00:01.585Z,98306.85
2019-02-10T23:02:32.359Z,98312.47
2019-02-10T23:05:00.325Z,98312.84
2019-02-10T23:07:29.151Z,98314.40
2019-02-10T23:09:57.257Z,98315.72
2019-02-10T23:12:25.165Z,98321.30
2019-02-10T23:14:53.067Z,98311.95
2019-02-10T23:17:21.107Z,98303.33
2019-02-10T23:19:49.059Z,98314.24
2019-02-10T23:22:17.038Z,98318.70
2019-02-10T23:24:44.854Z,98316.91
2019-02-10T23:27:12.831Z,98312.41
2019-02-10T23:29:40.725Z,98329.20
2019-02-10T23:32:08.706Z,98321.50
2019-02-10T23:34:36.530Z,98322.33
2019-02-10T23:37:04.409Z,98327.11
2019-02-10T23:39:32.508Z,98328.91
2019-02-10T23:42:00.303Z,98322.33
2019-02-10T23:44:28.292Z,98319.67
2019-02-10T23:46:56.976Z,98324.55
2019-02-10T23:49:24.987Z,98327.03
2019-02-10T23:51:52.893Z,98324.52
2019-02-10T23:54:20.832Z,98326.52
2019-02-10T23:56:48.825Z,98332.39
2019-02-10T23:59:16.737Z,98334.88
